Observations for CHERBOURG MAUPERTUS, France (LFRC)

LFRC 220730Z AUTO 19006KT 9999 -RA ///TCU 11/09 Q1021 TEMPO RA BKN015   
LFRC 220700Z AUTO 18003KT 9999 -RA ///TCU 12/09 Q1021 BECMG BKN030  
LFRC 220630Z AUTO 21004KT 9999 -RA FEW045 BKN110 BKN140 11/08 Q1021 NOSIG   
LFRC 220600Z AUTO 21005KT 9999 -RA NSC 12/08 Q1021 NOSIG
LFRC 220530Z AUTO 25006KT CAVOK 12/08 Q1021 NOSIG   
LFRC 220500Z AUTO 25007KT 9999 FEW035 SCT094 BKN110 12/08 Q1021 
LFRC 220430Z AUTO 23007KT 9999 FEW026 BKN032 BKN043 12/08 Q1021 
LFRC 220400Z AUTO 24005KT 9999 BKN028 BKN039 BKN086 12/08 Q1021 
LFRC 220330Z AUTO 23005KT 9999 FEW031 BKN100 12/07 Q1021
LFRC 220300Z AUTO 25006KT CAVOK 12/07 Q1021 
LFRC 220230Z AUTO 24007KT CAVOK 12/07 Q1021 
LFRC 220200Z AUTO 24006KT CAVOK 12/07 Q1022 
LFRC 220130Z AUTO 25005KT CAVOK 11/07 Q1021 
LFRC 220100Z AUTO 25006KT CAVOK 11/06 Q1021 
LFRC 220030Z AUTO 26007KT 9999 FEW031 BKN210 OVC240 11/07 Q1021 
LFRC 220000Z AUTO 25008KT 9999 FEW031 BKN210 OVC230 12/07 Q1021 
LFRC 212330Z AUTO 26007KT 9999 FEW032 BKN220 12/07 Q1021
LFRC 212300Z AUTO 25008KT CAVOK 11/07 Q1022 
LFRC 212230Z AUTO 25009KT CAVOK 12/07 Q1022 
LFRC 212200Z AUTO 25008KT CAVOK 11/07 Q1022 
LFRC 212130Z AUTO 25009KT CAVOK 12/07 Q1021 
LFRC 212100Z AUTO 25010KT CAVOK 12/08 Q1021 
LFRC 212030Z AUTO 26012KT CAVOK 13/07 Q1020 
LFRC 212000Z AUTO 26011KT 9999 FEW031 BKN160 13/08 Q1020
LFRC 211930Z AUTO 27012KT 9999 FEW038 13/07 Q1020   
LFRC 211900Z AUTO 27013KT CAVOK 13/07 Q1020 
LFRC 211830Z AUTO 27014KT CAVOK 13/07 Q1020 
LFRC 211800Z AUTO 27015KT CAVOK 13/06 Q1019 NOSIG   
LFRC 211730Z AUTO 27018KT CAVOK 13/06 Q1019 NOSIG   
LFRC 211700Z AUTO 27018G30KT 9999 FEW048 14/06 Q1018 BECMG 27010KT  
LFRC 211630Z AUTO 27020KT 9999 SCT034 BKN043 BKN056 14/07 Q1018 BECMG 27010KT   
LFRC 211600Z AUTO 27021KT 250V310 9999 BKN037 BKN047 BKN054 15/06 Q1018 BECMG 28020G30KT
LFRC 211530Z AUTO 27021G31KT 9999 BKN038 15/06 Q1018 NOSIG  
LFRC 211500Z AUTO 27021KT 9999 FEW037 SCT043 15/06 Q1018 BECMG 28020G30KT   
LFRC 211430Z AUTO 27023G34KT 9999 FEW043 15/05 Q1017 NOSIG  
LFRC 211400Z AUTO 27023G33KT 9999 SCT038 SCT044 15/05 Q1017 TEMPO 4000 SHRA SCT020TCU   
LFRC 211330Z AUTO 27025KT 9999 FEW039 15/05 Q1016 TEMPO 4000 SHRA SCT020TCU BECMG 28020G30KT
LFRC 211300Z AUTO 27022KT 9999 BKN038 BKN044 16/06 Q1016 TEMPO 4000 SHRA SCT020TCU BECMG 28020G30KT 
LFRC 211230Z AUTO 26023G33KT 9999 BKN037 BKN047 16/06 Q1016 TEMPO 4000 SHRA SCT020TCU   
LFRC 211200Z AUTO 27023KT 9999 BKN043 BKN049 16/05 Q1015 TEMPO 4000 SHRA SCT020TCU BECMG 28020G30KT 
LFRC 211130Z AUTO 27024KT 9999 FEW038 SCT046 15/05 Q1015 TEMPO 4000 SHRA SCT020TCU BECMG 28020G30KT 
LFRC 211100Z AUTO 27019KT 9999 BKN036 BKN043 BKN058 15/06 Q1015 TEMPO 4000 SHRA SCT020TCU BECMG 28025G35KT  
LFRC 211030Z AUTO 27021KT 9999 BKN040 BKN047 15/07 Q1014 TEMPO 4000 SHRA SCT020TCU BECMG 28025G35KT 
LFRC 211000Z AUTO 28020KT 9999 SCT038 SCT045 14/06 Q1014 TEMPO 4000 SHRA SCT020TCU BECMG 28025G35KT 
LFRC 210930Z AUTO 28022KT 9999 BKN037 BKN048 BKN060 14/06 Q1014 TEMPO 4000 SHRA SCT020TCU BECMG 28025G35KT  
LFRC 210900Z AUTO 28019KT 9999 FEW035 SCT058 14/06 Q1013 TEMPO 4000 SHRA SCT020TCU BECMG 28025G35KT 
LFRC 210830Z AUTO 28017KT 9999 -RA BKN030 BKN045 BKN054 13/07 Q1013 TEMPO 4000 SHRA SCT020TCU BECMG 28025G35KT  
LFRC 210800Z AUTO 28020KT 9999 SCT032 SCT047 BKN056 13/06 Q1012 TEMPO SHRA SCT020TCU BECMG 28025G35KT   
LFRC 210730Z AUTO 27017KT 9999 SCT030 BKN035 BKN041 12/06 Q1012 TEMPO SHRA SCT020TCU BECMG 28025G35KT   
LFRC 210700Z AUTO 28018G31KT 9999 BKN030 12/06 Q1011 TEMPO SHRA SCT020TCU